Time;durP1;ratioP1;P1;durP2;ratioP2;P2;SDS_P1;SDS_P2;PMS_P1;PMS_P2;Temp;Humidity;BMP_temperature;BMP_pressure;BME280_temperature;BME280_humidity;BME280_pressure;Samples;Min_cycle;Max_cycle;Signal;HPM_P1;HPM_P2
2023/06/20 00:00:48;;;;;;;15.18;10.00;;;17.90;99.90;;;;;;4981019;28;20038;-55
2023/06/20 00:03:14;;;;;;;12.40;9.85;;;17.90;99.90;;;;;;4981362;28;20053;-56
2023/06/20 00:05:40;;;;;;;12.07;10.60;;;17.90;99.90;;;;;;4979898;28;20057;-53
2023/06/20 00:08:05;;;;;;;13.25;9.85;;;17.90;99.90;;;;;;4981152;28;20050;-54
2023/06/20 00:10:31;;;;;;;13.07;10.70;;;17.90;99.90;;;;;;4979762;28;20046;-48
2023/06/20 00:12:57;;;;;;;13.57;10.07;;;17.90;99.90;;;;;;4980726;28;20089;-55
2023/06/20 00:15:25;;;;;;;16.83;10.07;;;17.90;99.90;;;;;;4981445;28;20440;-57
2023/06/20 00:17:54;;;;;;;13.27;10.43;;;17.90;99.90;;;;;;4984690;28;20444;-53
2023/06/20 00:20:20;;;;;;;12.23;10.25;;;17.90;99.90;;;;;;4983495;28;20050;-53
2023/06/20 00:22:46;;;;;;;11.95;10.63;;;17.80;99.90;;;;;;4985213;28;20128;-54
2023/06/20 00:25:11;;;;;;;13.88;9.88;;;17.80;99.90;;;;;;4983532;28;20053;-56
2023/06/20 00:27:37;;;;;;;13.35;10.80;;;17.80;99.90;;;;;;4984637;28;20449;-50
2023/06/20 00:30:03;;;;;;;13.02;10.57;;;17.80;99.90;;;;;;4983855;28;20093;-53
2023/06/20 00:32:29;;;;;;;14.57;10.98;;;17.80;99.90;;;;;;4985099;28;20050;-55
2023/06/20 00:34:58;;;;;;;14.63;11.50;;;17.80;99.90;;;;;;4983715;28;20405;-55
2023/06/20 00:37:24;;;;;;;17.05;11.55;;;17.80;99.90;;;;;;4984327;28;20052;-52
2023/06/20 00:39:50;;;;;;;14.77;11.65;;;17.80;99.90;;;;;;4982959;28;20042;-51
2023/06/20 00:42:18;;;;;;;13.85;11.32;;;17.80;99.90;;;;;;4984226;28;20046;-56
2023/06/20 00:44:43;;;;;;;14.68;11.85;;;17.90;99.90;;;;;;4984234;28;20039;-56
2023/06/20 00:47:09;;;;;;;14.30;11.55;;;17.90;99.90;;;;;;4983954;28;20043;-57
2023/06/20 00:49:35;;;;;;;13.95;11.82;;;17.90;99.90;;;;;;4982815;28;20042;-56
2023/06/20 00:52:02;;;;;;;16.63;11.70;;;17.90;99.90;;;;;;4984479;28;20252;-57
2023/06/20 00:54:29;;;;;;;13.75;11.75;;;17.80;99.90;;;;;;4983698;28;20042;-58
2023/06/20 00:56:55;;;;;;;15.38;11.65;;;17.70;99.90;;;;;;4984577;28;20046;-55
2023/06/20 00:59:20;;;;;;;20.70;12.75;;;17.70;99.90;;;;;;4984121;28;20044;-54
2023/06/20 01:01:46;;;;;;;14.23;12.73;;;17.70;99.90;;;;;;4983654;28;20081;-52
2023/06/20 01:04:12;;;;;;;16.38;13.20;;;17.70;99.90;;;;;;4983825;28;20053;-57
2023/06/20 01:07:01;;;;;;;16.85;13.80;;;17.60;99.90;;;;;;4983552;28;20085;-51
2023/06/20 01:09:44;;;;;;;17.42;13.43;;;17.60;99.90;;;;;;4983599;28;20116;-59
2023/06/20 01:12:46;;;;;;;14.15;12.20;;;17.50;99.90;;;;;;5082304;22;20518;-58
2023/06/20 01:15:29;;;;;;;16.60;13.30;;;17.40;99.90;;;;;;5014098;28;20479;-53
2023/06/20 01:18:18;;;;;;;16.30;12.85;;;17.40;99.90;;;;;;5005273;28;20810;-56
2023/06/20 01:20:50;;;;;;;17.35;13.23;;;17.50;99.90;;;;;;5005521;28;20064;-52
2023/06/20 01:23:25;;;;;;;17.35;13.43;;;17.50;99.90;;;;;;5005633;28;20052;-59
2023/06/20 01:25:51;;;;;;;16.67;14.40;;;17.50;99.90;;;;;;5021356;28;20052;-58
2023/06/20 01:28:20;;;;;;;19.33;14.20;;;17.30;99.90;;;;;;5025291;28;20046;-54
2023/06/20 01:30:50;;;;;;;16.58;13.38;;;17.50;99.90;;;;;;5020530;28;20061;-56
2023/06/20 01:33:28;;;;;;;20.85;14.27;;;17.40;99.90;;;;;;5006290;28;20444;-58
2023/06/20 01:35:55;;;;;;;24.70;14.88;;;17.50;99.90;;;;;;5005057;28;20057;-58
2023/06/20 01:38:26;;;;;;;18.48;14.93;;;17.50;99.90;;;;;;5005866;28;20065;-55
2023/06/20 01:40:53;;;;;;;18.70;15.23;;;17.50;99.90;;;;;;5005220;28;20045;-55
2023/06/20 01:43:20;;;;;;;19.17;15.55;;;17.50;99.90;;;;;;5004558;28;20092;-58
2023/06/20 01:45:47;;;;;;;21.70;15.57;;;17.40;99.90;;;;;;5010289;28;20048;-54
2023/06/20 01:48:14;;;;;;;19.80;15.82;;;17.40;99.90;;;;;;5012931;28;20045;-52
2023/06/20 01:50:41;;;;;;;18.08;16.25;;;17.50;99.90;;;;;;5004815;28;20038;-48
2023/06/20 01:53:08;;;;;;;20.65;16.67;;;17.50;99.90;;;;;;5005730;28;20046;-54
2023/06/20 01:55:36;;;;;;;21.08;16.58;;;17.60;99.90;;;;;;5005696;28;20116;-50
2023/06/20 01:58:03;;;;;;;19.48;16.25;;;17.50;99.90;;;;;;5005924;28;20073;-57
2023/06/20 02:00:29;;;;;;;20.00;16.88;;;17.40;99.90;;;;;;5004798;28;20038;-56
2023/06/20 02:03:00;;;;;;;19.58;16.50;;;17.40;99.90;;;;;;5005424;28;20038;-56
2023/06/20 02:05:29;;;;;;;21.92;16.08;;;17.30;99.90;;;;;;5004260;28;20467;-53
2023/06/20 02:07:56;;;;;;;23.33;16.70;;;17.40;99.90;;;;;;5004425;28;20046;-57
2023/06/20 02:10:22;;;;;;;20.73;17.33;;;17.40;99.90;;;;;;5005414;28;20140;-53
2023/06/20 02:12:50;;;;;;;21.13;17.55;;;17.50;99.90;;;;;;5005309;28;20146;-48
2023/06/20 02:15:18;;;;;;;24.60;17.17;;;17.40;99.90;;;;;;5004614;28;20064;-59
2023/06/20 02:17:44;;;;;;;24.25;18.92;;;17.30;99.90;;;;;;5005175;28;20556;-55
2023/06/20 02:20:11;;;;;;;20.58;16.88;;;17.40;99.90;;;;;;5004433;28;20075;-52
2023/06/20 02:22:37;;;;;;;23.95;17.67;;;17.30;99.90;;;;;;5004947;28;20103;-58
2023/06/20 02:25:09;;;;;;;21.92;17.42;;;17.30;99.90;;;;;;5004853;28;20085;-57
2023/06/20 02:27:39;;;;;;;20.88;18.17;;;17.40;99.90;;;;;;5004780;28;20053;-55
2023/06/20 02:30:09;;;;;;;22.58;19.02;;;17.30;99.90;;;;;;5004837;28;20052;-58
2023/06/20 02:32:36;;;;;;;24.30;18.92;;;17.30;99.90;;;;;;5003942;28;20053;-53
2023/06/20 02:35:03;;;;;;;22.92;19.23;;;17.30;99.90;;;;;;5004323;28;20507;-58
2023/06/20 02:37:33;;;;;;;23.67;19.02;;;17.20;99.90;;;;;;5004854;28;20058;-58
2023/06/20 02:39:58;;;;;;;28.75;18.55;;;17.20;99.90;;;;;;5003904;28;20049;-52
2023/06/20 02:42:24;;;;;;;25.95;19.00;;;17.20;99.90;;;;;;5004972;28;20046;-59
2023/06/20 02:44:50;;;;;;;23.73;18.88;;;17.10;99.90;;;;;;5004544;28;20093;-57
2023/06/20 02:47:48;;;;;;;22.85;18.85;;;17.10;99.90;;;;;;5003921;28;20046;-54
2023/06/20 02:50:31;;;;;;;24.83;19.15;;;17.10;99.90;;;;;;5004096;28;20042;-51
2023/06/20 02:53:40;;;;;;;24.75;20.23;;;17.10;99.90;;;;;;5003849;28;20046;-51
2023/06/20 02:56:13;;;;;;;22.02;18.60;;;17.10;99.90;;;;;;5005592;28;20405;-57
2023/06/20 02:58:43;;;;;;;23.40;19.35;;;17.10;99.90;;;;;;5004957;28;20046;-52
2023/06/20 03:01:10;;;;;;;25.25;19.80;;;17.10;99.90;;;;;;5004699;28;20642;-55
2023/06/20 03:03:40;;;;;;;23.35;19.45;;;17.10;99.90;;;;;;5005182;28;20042;-57
2023/06/20 03:06:09;;;;;;;27.65;20.23;;;17.00;99.90;;;;;;5003223;28;20046;-51
2023/06/20 03:08:38;;;;;;;24.60;20.52;;;17.00;99.90;;;;;;5003930;28;20137;-58
2023/06/20 03:11:04;;;;;;;24.27;20.48;;;17.00;99.90;;;;;;5004213;28;20096;-55
2023/06/20 03:13:29;;;;;;;27.45;20.40;;;16.90;99.90;;;;;;5002853;28;20053;-52
2023/06/20 03:15:55;;;;;;;25.00;19.77;;;17.00;99.90;;;;;;5003015;28;20041;-50
2023/06/20 03:18:21;;;;;;;24.95;20.88;;;17.10;99.90;;;;;;5018958;28;20096;-59
2023/06/20 03:20:48;;;;;;;23.98;20.45;;;17.00;99.90;;;;;;5001685;28;20034;-58
2023/06/20 03:23:14;;;;;;;27.20;20.52;;;17.00;99.90;;;;;;5003060;28;20056;-52
2023/06/20 03:25:40;;;;;;;26.23;19.75;;;17.10;99.90;;;;;;5004974;28;20037;-56
2023/06/20 03:28:05;;;;;;;22.95;19.75;;;17.00;99.90;;;;;;5003999;28;20133;-57
2023/06/20 03:30:31;;;;;;;23.33;19.80;;;17.00;99.90;;;;;;5003918;28;20054;-57
2023/06/20 03:32:56;;;;;;;23.17;20.50;;;17.10;99.90;;;;;;5003174;28;20492;-52
2023/06/20 03:35:22;;;;;;;24.60;20.70;;;17.10;99.90;;;;;;5003489;28;20115;-48
2023/06/20 03:37:48;;;;;;;25.88;20.10;;;17.10;99.90;;;;;;5004087;28;20088;-53
2023/06/20 03:40:13;;;;;;;24.17;19.38;;;17.10;99.90;;;;;;5004216;28;20149;-57
2023/06/20 03:42:39;;;;;;;21.58;19.15;;;17.10;99.90;;;;;;5004959;28;20463;-57
2023/06/20 03:45:05;;;;;;;24.40;20.00;;;17.20;99.90;;;;;;5004190;28;20129;-56
2023/06/20 03:47:31;;;;;;;24.08;19.58;;;17.20;99.90;;;;;;5004591;28;20040;-54
2023/06/20 03:49:56;;;;;;;22.90;19.63;;;17.20;99.90;;;;;;5002815;28;20121;-55
2023/06/20 03:52:22;;;;;;;24.27;20.20;;;17.20;99.90;;;;;;5006516;28;20042;-48
2023/06/20 03:54:47;;;;;;;27.73;20.33;;;17.20;99.90;;;;;;5008788;28;20042;-57
2023/06/20 03:57:13;;;;;;;25.23;20.10;;;17.20;99.90;;;;;;5007983;28;20046;-57
2023/06/20 03:59:39;;;;;;;25.83;19.55;;;17.20;99.90;;;;;;5007635;28;20042;-55
2023/06/20 04:02:04;;;;;;;25.38;19.55;;;17.10;99.90;;;;;;5006903;28;20041;-52
2023/06/20 04:04:30;;;;;;;22.77;18.50;;;17.20;99.90;;;;;;5004723;28;20964;-48
2023/06/20 04:06:55;;;;;;;26.67;20.50;;;17.20;99.90;;;;;;5006777;28;20046;-57
2023/06/20 04:09:26;;;;;;;21.05;18.85;;;17.30;99.90;;;;;;5007404;28;20080;-55
2023/06/20 04:11:52;;;;;;;21.20;18.73;;;17.20;99.90;;;;;;4989926;28;20096;-57
2023/06/20 04:14:17;;;;;;;22.77;19.40;;;17.30;99.90;;;;;;5007666;28;20103;-55
2023/06/20 04:16:44;;;;;;;23.60;19.38;;;17.30;99.90;;;;;;5007683;28;20054;-59
2023/06/20 04:19:10;;;;;;;25.70;21.13;;;17.40;99.90;;;;;;5006804;28;20046;-51
2023/06/20 04:21:36;;;;;;;27.15;19.67;;;17.40;99.90;;;;;;5006836;28;20479;-51
2023/06/20 04:24:01;;;;;;;24.50;20.40;;;17.40;99.90;;;;;;5007137;28;20180;-59
2023/06/20 04:26:29;;;;;;;21.75;19.27;;;17.40;99.90;;;;;;5006429;28;20081;-59
2023/06/20 04:28:55;;;;;;;25.73;20.13;;;17.40;99.90;;;;;;5007444;28;20103;-53
2023/06/20 04:31:21;;;;;;;23.40;19.77;;;17.40;99.90;;;;;;5005973;28;20060;-54
2023/06/20 04:33:46;;;;;;;22.55;19.83;;;17.40;99.90;;;;;;5007004;28;20046;-57
2023/06/20 04:36:13;;;;;;;25.65;19.35;;;17.40;99.90;;;;;;5005978;28;20520;-58
2023/06/20 04:38:47;;;;;;;23.40;19.67;;;17.50;99.90;;;;;;5006294;28;20112;-49
2023/06/20 04:41:13;;;;;;;23.88;19.67;;;17.50;99.90;;;;;;5007206;28;20064;-58
2023/06/20 04:43:38;;;;;;;26.67;21.10;;;17.50;99.90;;;;;;5006260;28;20050;-57
2023/06/20 04:46:04;;;;;;;26.73;20.20;;;17.50;99.90;;;;;;5005363;28;20050;-52
2023/06/20 04:48:36;;;;;;;22.42;19.17;;;17.50;99.90;;;;;;4989138;28;20053;-50
2023/06/20 04:51:02;;;;;;;23.13;19.25;;;17.50;99.90;;;;;;5005634;28;20042;-57
2023/06/20 04:53:28;;;;;;;24.40;20.15;;;17.50;99.90;;;;;;5006039;28;20037;-56
2023/06/20 04:55:54;;;;;;;25.48;18.90;;;17.50;99.90;;;;;;5005525;28;20088;-51
2023/06/20 04:58:20;;;;;;;22.13;18.58;;;17.60;99.90;;;;;;5006577;28;20878;-58
2023/06/20 05:00:48;;;;;;;22.90;18.20;;;17.70;99.90;;;;;;5006630;28;20128;-58
2023/06/20 05:03:13;;;;;;;20.88;18.60;;;17.70;99.90;;;;;;5005857;28;20050;-57
2023/06/20 05:05:40;;;;;;;24.00;18.02;;;17.70;99.90;;;;;;5005774;28;20034;-53
2023/06/20 05:08:05;;;;;;;26.42;17.55;;;17.70;99.90;;;;;;5006571;28;20076;-58
2023/06/20 05:10:31;;;;;;;22.08;18.17;;;17.80;99.90;;;;;;5006125;28;20536;-58
2023/06/20 05:12:57;;;;;;;22.63;17.92;;;17.90;99.90;;;;;;5006109;28;20058;-58
2023/06/20 05:15:25;;;;;;;20.95;17.55;;;17.90;99.90;;;;;;5006609;28;20054;-53
2023/06/20 05:17:52;;;;;;;23.98;17.33;;;18.00;99.90;;;;;;5006508;28;20046;-48
2023/06/20 05:20:17;;;;;;;22.02;17.45;;;18.00;99.90;;;;;;5005236;28;20041;-59
2023/06/20 05:22:43;;;;;;;22.73;17.95;;;18.20;99.90;;;;;;5004838;28;20412;-58
2023/06/20 05:25:09;;;;;;;20.55;16.45;;;18.10;99.90;;;;;;5018490;28;20052;-53
2023/06/20 05:27:34;;;;;;;18.80;16.05;;;18.10;99.90;;;;;;5023837;28;20064;-52
2023/06/20 05:30:00;;;;;;;19.95;16.48;;;18.20;99.90;;;;;;5025999;28;20033;-58
2023/06/20 05:32:26;;;;;;;20.90;17.20;;;18.30;99.90;;;;;;5026407;28;20060;-58
2023/06/20 05:34:53;;;;;;;19.48;17.08;;;18.40;99.90;;;;;;5024738;28;20519;-57
2023/06/20 05:37:19;;;;;;;21.90;17.55;;;18.50;99.90;;;;;;5026126;28;20088;-56
2023/06/20 05:39:44;;;;;;;22.70;17.42;;;18.80;99.90;;;;;;5025439;28;20069;-55
2023/06/20 05:42:10;;;;;;;21.00;16.98;;;18.70;99.90;;;;;;5023888;28;20065;-51
2023/06/20 05:44:36;;;;;;;19.77;16.02;;;18.80;99.90;;;;;;5016804;28;20056;-56
2023/06/20 05:47:03;;;;;;;20.60;16.30;;;18.90;99.90;;;;;;5005874;28;20096;-54
2023/06/20 05:49:28;;;;;;;19.70;16.52;;;18.90;99.90;;;;;;5003643;28;20140;-50
2023/06/20 05:51:54;;;;;;;18.63;16.10;;;19.00;99.90;;;;;;5005037;28;20531;-55
2023/06/20 05:54:22;;;;;;;19.70;15.82;;;19.00;99.90;;;;;;5005298;28;20045;-51
2023/06/20 05:56:49;;;;;;;18.38;15.95;;;19.20;99.90;;;;;;5005453;28;20041;-48
2023/06/20 05:59:14;;;;;;;20.15;15.35;;;19.40;99.90;;;;;;5005457;28;20042;-51
2023/06/20 06:01:40;;;;;;;18.33;14.90;;;19.70;99.90;;;;;;5005170;28;20049;-50
2023/06/20 06:04:06;;;;;;;22.42;15.48;;;20.00;99.90;;;;;;5004650;28;20069;-59
2023/06/20 06:06:32;;;;;;;25.10;16.35;;;20.20;99.90;;;;;;5005600;28;20042;-57
2023/06/20 06:08:58;;;;;;;18.65;15.70;;;20.30;99.90;;;;;;5004634;28;20034;-52
2023/06/20 06:11:25;;;;;;;17.88;15.20;;;20.40;99.90;;;;;;5003926;28;20100;-50
2023/06/20 06:13:50;;;;;;;19.52;14.68;;;20.50;99.90;;;;;;5005787;28;20054;-59
2023/06/20 06:16:17;;;;;;;19.17;15.13;;;20.60;99.90;;;;;;5005155;28;20443;-57
2023/06/20 06:18:43;;;;;;;19.75;14.88;;;20.70;99.90;;;;;;5004620;28;20496;-54
2023/06/20 06:21:09;;;;;;;16.05;13.93;;;20.80;99.90;;;;;;5004893;28;20052;-53
2023/06/20 06:23:35;;;;;;;19.02;15.00;;;20.70;99.90;;;;;;5005382;28;20768;-59
2023/06/20 06:26:01;;;;;;;17.25;13.95;;;20.70;99.90;;;;;;5004233;28;20092;-57
2023/06/20 06:28:28;;;;;;;15.60;13.77;;;20.70;99.90;;;;;;5005293;28;20449;-58
2023/06/20 06:30:54;;;;;;;19.88;13.38;;;20.70;99.90;;;;;;5004983;28;20046;-53
2023/06/20 06:33:20;;;;;;;19.35;14.68;;;20.60;99.90;;;;;;5004839;28;20225;-55
2023/06/20 06:35:47;;;;;;;17.10;14.48;;;20.40;99.90;;;;;;5004047;28;20141;-59
2023/06/20 06:38:13;;;;;;;16.30;13.23;;;20.40;99.90;;;;;;5004228;28;20444;-56
2023/06/20 06:40:39;;;;;;;17.30;14.18;;;20.40;99.90;;;;;;5004140;28;20042;-56
2023/06/20 06:43:05;;;;;;;16.23;13.05;;;20.40;99.90;;;;;;5002891;28;20127;-54
2023/06/20 06:45:32;;;;;;;16.65;12.85;;;20.50;99.90;;;;;;5003514;28;20042;-58
2023/06/20 06:47:58;;;;;;;15.38;12.32;;;20.50;99.90;;;;;;5003604;28;20133;-58
2023/06/20 06:50:23;;;;;;;20.45;13.95;;;20.60;99.90;;;;;;5002385;28;20116;-55
2023/06/20 06:52:49;;;;;;;19.45;12.45;;;20.70;99.90;;;;;;5003321;28;20096;-52
2023/06/20 06:55:15;;;;;;;17.52;12.35;;;20.70;99.90;;;;;;5002709;28;20081;-56
2023/06/20 06:57:40;;;;;;;15.45;11.55;;;20.80;99.90;;;;;;5004268;28;20046;-58
2023/06/20 07:00:11;;;;;;;18.58;12.57;;;20.90;99.90;;;;;;5004601;28;20117;-61
2023/06/20 07:02:36;;;;;;;19.67;14.48;;;21.00;99.90;;;;;;5003973;28;20110;-55
2023/06/20 07:05:04;;;;;;;15.07;11.32;;;21.20;99.90;;;;;;5003400;28;20543;-54
2023/06/20 07:07:30;;;;;;;15.27;11.13;;;21.30;99.90;;;;;;5003881;28;20062;-59
2023/06/20 07:09:55;;;;;;;15.82;10.88;;;21.50;99.90;;;;;;5002938;28;20053;-55
2023/06/20 07:12:21;;;;;;;12.93;10.73;;;21.80;99.90;;;;;;5003568;28;20053;-56
2023/06/20 07:14:50;;;;;;;13.40;10.80;;;21.80;99.90;;;;;;5007335;28;20092;-54
2023/06/20 07:17:15;;;;;;;13.98;10.65;;;21.80;99.90;;;;;;5014924;28;20038;-59
2023/06/20 07:19:43;;;;;;;13.18;11.07;;;21.70;99.90;;;;;;5012590;28;20038;-58
2023/06/20 07:22:09;;;;;;;14.80;11.07;;;21.70;99.90;;;;;;5007634;28;20099;-53
2023/06/20 07:24:34;;;;;;;16.48;11.25;;;21.60;99.90;;;;;;5009051;28;20047;-59
2023/06/20 07:27:00;;;;;;;17.55;11.82;;;21.60;99.90;;;;;;5002100;28;20042;-56
2023/06/20 07:29:25;;;;;;;14.60;12.48;;;21.70;99.90;;;;;;5004039;28;20420;-59
2023/06/20 07:31:51;;;;;;;19.77;12.82;;;22.00;99.90;;;;;;5001843;28;20049;-55
2023/06/20 07:34:16;;;;;;;13.73;11.32;;;22.30;99.90;;;;;;5002660;28;20772;-51
2023/06/20 07:36:42;;;;;;;14.38;11.77;;;22.50;99.90;;;;;;5003819;28;20389;-57
2023/06/20 07:39:08;;;;;;;14.57;10.95;;;22.60;99.90;;;;;;5002446;28;20053;-57
2023/06/20 07:41:33;;;;;;;16.70;10.52;;;22.60;99.90;;;;;;5002797;28;20042;-58
2023/06/20 07:43:59;;;;;;;12.05;10.77;;;22.70;99.90;;;;;;5006620;28;20045;-54
2023/06/20 07:46:25;;;;;;;12.88;11.40;;;22.60;99.90;;;;;;5013173;28;20046;-51
2023/06/20 07:48:51;;;;;;;14.45;10.95;;;22.60;99.90;;;;;;5006091;28;20472;-50
2023/06/20 07:51:16;;;;;;;13.13;10.68;;;22.50;99.90;;;;;;5004123;28;20042;-58
2023/06/20 07:53:42;;;;;;;13.55;11.02;;;22.50;99.90;;;;;;5003099;28;20054;-58
2023/06/20 07:56:07;;;;;;;13.93;11.75;;;22.40;99.90;;;;;;5003514;28;20038;-58
2023/06/20 07:58:33;;;;;;;16.17;11.77;;;22.30;99.90;;;;;;5001319;28;20432;-53
2023/06/20 08:01:00;;;;;;;15.35;11.77;;;22.30;99.90;;;;;;5000682;28;20121;-50
2023/06/20 08:03:26;;;;;;;14.27;11.35;;;22.20;99.90;;;;;;5001098;28;20460;-55
2023/06/20 08:05:52;;;;;;;16.00;11.48;;;22.20;99.90;;;;;;4999610;28;20046;-57
2023/06/20 08:08:18;;;;;;;15.50;11.85;;;22.30;99.90;;;;;;5001158;28;20045;-54
2023/06/20 08:10:44;;;;;;;18.02;12.00;;;22.30;99.90;;;;;;5000884;28;20034;-54
2023/06/20 08:13:09;;;;;;;15.60;12.77;;;22.30;99.90;;;;;;5000780;28;20054;-58
2023/06/20 08:15:35;;;;;;;14.30;12.02;;;22.30;99.90;;;;;;5000351;28;20050;-58
2023/06/20 08:18:00;;;;;;;14.43;12.40;;;22.20;99.90;;;;;;5001135;28;20046;-58
2023/06/20 08:20:26;;;;;;;19.75;13.40;;;22.30;99.90;;;;;;5000235;28;20496;-51
2023/06/20 08:22:52;;;;;;;13.75;12.38;;;22.30;99.90;;;;;;5008294;28;20179;-52
2023/06/20 08:25:17;;;;;;;16.30;12.85;;;22.20;99.90;;;;;;5016582;28;20045;-56
2023/06/20 08:27:43;;;;;;;16.35;13.02;;;22.10;99.90;;;;;;5023106;28;20264;-58
2023/06/20 08:30:09;;;;;;;16.05;12.65;;;22.10;99.90;;;;;;5014770;28;20048;-58
2023/06/20 08:32:36;;;;;;;13.07;11.77;;;22.10;99.90;;;;;;5002848;28;20503;-52
2023/06/20 08:35:02;;;;;;;14.55;12.60;;;22.20;99.90;;;;;;5018551;28;20459;-53
2023/06/20 08:37:28;;;;;;;15.93;12.15;;;22.20;99.90;;;;;;5017383;28;20049;-57
2023/06/20 08:39:53;;;;;;;14.93;11.80;;;22.30;99.90;;;;;;5009183;28;20069;-55
2023/06/20 08:42:19;;;;;;;13.82;12.25;;;22.30;99.90;;;;;;5006415;28;20447;-58
2023/06/20 08:44:45;;;;;;;14.38;11.70;;;22.40;99.90;;;;;;5014634;28;20094;-55
2023/06/20 08:47:11;;;;;;;14.90;12.65;;;22.50;99.90;;;;;;5025344;28;20050;-57
2023/06/20 08:49:36;;;;;;;17.40;13.73;;;22.40;99.90;;;;;;5025154;28;20045;-59
2023/06/20 08:52:09;;;;;;;12.95;11.65;;;22.60;99.90;;;;;;5016474;28;20054;-59
2023/06/20 08:54:40;;;;;;;17.00;13.30;;;22.70;99.90;;;;;;5022442;28;20249;-55
2023/06/20 08:57:06;;;;;;;14.57;12.30;;;22.80;99.90;;;;;;5023694;28;20045;-49
2023/06/20 08:59:35;;;;;;;17.02;13.70;;;22.90;99.90;;;;;;5019117;28;20038;-55
2023/06/20 09:02:02;;;;;;;13.30;11.57;;;22.90;99.90;;;;;;5006797;28;20099;-52
2023/06/20 09:04:28;;;;;;;15.18;12.70;;;23.00;99.90;;;;;;5004843;28;20121;-54
2023/06/20 09:06:53;;;;;;;17.90;12.32;;;23.00;99.90;;;;;;5006120;28;20130;-54
2023/06/20 09:09:21;;;;;;;15.73;13.07;;;23.00;99.90;;;;;;5016658;28;20050;-53
2023/06/20 09:11:56;;;;;;;14.80;12.07;;;23.00;99.90;;;;;;5011123;28;20057;-51
2023/06/20 09:14:28;;;;;;;14.80;12.52;;;23.10;99.90;;;;;;5014675;28;20182;-56
2023/06/20 09:16:55;;;;;;;12.57;11.18;;;23.10;99.90;;;;;;5016470;28;20041;-52
2023/06/20 09:19:21;;;;;;;13.90;12.40;;;23.20;99.90;;;;;;5015715;28;20487;-53
2023/06/20 09:21:47;;;;;;;14.75;12.50;;;23.20;99.90;;;;;;5006291;28;20041;-54
2023/06/20 09:24:16;;;;;;;12.93;11.52;;;23.30;99.90;;;;;;5005031;28;20053;-59
2023/06/20 09:26:42;;;;;;;14.65;11.05;;;23.50;99.90;;;;;;5005366;28;20089;-56
2023/06/20 09:29:10;;;;;;;12.32;10.75;;;23.60;99.90;;;;;;5003997;28;20284;-53
2023/06/20 09:31:49;;;;;;;13.25;11.85;;;23.80;99.90;;;;;;5003302;28;20141;-57
2023/06/20 09:34:19;;;;;;;14.50;10.88;;;24.00;99.90;;;;;;5003052;28;20550;-57
2023/06/20 09:36:46;;;;;;;11.95;10.65;;;23.80;99.90;;;;;;5004706;28;20084;-52
2023/06/20 09:39:17;;;;;;;15.75;11.43;;;23.90;99.90;;;;;;5007644;28;20052;-56
2023/06/20 09:41:49;;;;;;;12.73;11.02;;;24.00;99.90;;;;;;5013053;28;20042;-56
2023/06/20 09:44:19;;;;;;;12.68;11.32;;;24.10;99.90;;;;;;5006615;28;20053;-58
2023/06/20 09:46:45;;;;;;;13.40;10.88;;;24.40;99.90;;;;;;5004787;28;20064;-54
2023/06/20 09:49:12;;;;;;;12.45;9.98;;;24.70;99.90;;;;;;5004385;28;20034;-52
2023/06/20 09:51:43;;;;;;;12.05;9.65;;;24.90;99.90;;;;;;5012258;28;20060;-51
2023/06/20 09:54:12;;;;;;;9.90;8.73;;;25.00;99.90;;;;;;5021900;28;20132;-56
2023/06/20 09:56:48;;;;;;;10.73;8.60;;;25.30;99.90;;;;;;5015220;28;20034;-52
2023/06/20 09:59:15;;;;;;;9.27;8.32;;;25.50;99.90;;;;;;5010177;28;20054;-54
2023/06/20 10:01:42;;;;;;;8.02;7.07;;;25.60;99.90;;;;;;5004987;28;20113;-57
2023/06/20 10:04:08;;;;;;;9.45;8.45;;;25.90;99.90;;;;;;5000975;28;20500;-58
2023/06/20 10:06:37;;;;;;;11.30;7.47;;;26.20;99.60;;;;;;5015669;28;20100;-53
2023/06/20 10:09:07;;;;;;;9.20;7.65;;;26.60;99.40;;;;;;5022037;28;20145;-56
2023/06/20 10:11:37;;;;;;;10.20;9.20;;;26.80;98.80;;;;;;5022240;28;21037;-57
2023/06/20 10:14:04;;;;;;;9.10;8.00;;;26.80;98.40;;;;;;5022381;28;20049;-56
2023/06/20 10:16:30;;;;;;;11.23;8.15;;;27.10;98.20;;;;;;5022405;28;20092;-54
2023/06/20 10:18:56;;;;;;;10.43;8.18;;;27.30;97.10;;;;;;5009079;28;20038;-57
2023/06/20 10:21:54;;;;;;;11.07;8.15;;;27.30;97.20;;;;;;5004556;28;20041;-51
2023/06/20 10:24:21;;;;;;;10.60;9.00;;;27.20;97.70;;;;;;5004734;28;20081;-52
2023/06/20 10:26:53;;;;;;;11.70;8.40;;;27.10;97.50;;;;;;5002938;28;20046;-52
2023/06/20 10:29:19;;;;;;;10.60;9.27;;;27.10;97.60;;;;;;5001376;28;20049;-51
2023/06/20 10:32:01;;;;;;;10.40;8.55;;;27.10;97.40;;;;;;5002424;28;20453;-55
2023/06/20 10:34:35;;;;;;;9.40;8.40;;;27.00;97.20;;;;;;5006441;28;20504;-57
2023/06/20 10:37:19;;;;;;;11.85;7.90;;;27.10;97.20;;;;;;5007390;28;20107;-51
2023/06/20 10:39:54;;;;;;;;;;;27.00;96.30;;;;;;5005371;28;20496;-58
2023/06/20 10:42:43;;;;;;;9.73;8.75;;;26.90;96.90;;;;;;5004230;28;19929;-58
2023/06/20 10:45:29;;;;;;;9.88;8.27;;;26.90;96.90;;;;;;5002397;28;20465;-55
2023/06/20 10:47:56;;;;;;;11.32;8.55;;;26.90;97.00;;;;;;5002741;28;20045;-58
2023/06/20 10:50:22;;;;;;;10.05;8.10;;;26.80;96.80;;;;;;5003679;28;20045;-55
2023/06/20 10:52:48;;;;;;;9.95;8.85;;;26.80;97.10;;;;;;5003659;28;20042;-55
2023/06/20 10:55:26;;;;;;;10.15;9.10;;;26.80;97.20;;;;;;5003179;28;20034;-53
2023/06/20 10:57:52;;;;;;;12.10;9.80;;;27.10;97.30;;;;;;5001501;28;20404;-52
2023/06/20 11:00:20;;;;;;;10.75;9.52;;;27.30;97.10;;;;;;5000618;28;20049;-57
2023/06/20 11:02:47;;;;;;;9.82;8.82;;;27.50;97.10;;;;;;5001177;28;20124;-50
2023/06/20 11:05:13;;;;;;;22.58;10.27;;;27.70;97.00;;;;;;5001099;28;20042;-55
2023/06/20 11:08:04;;;;;;;10.77;8.65;;;27.90;96.30;;;;;;5001208;28;20284;-56
2023/06/20 11:10:35;;;;;;;10.10;9.10;;;28.00;96.20;;;;;;5001532;28;20057;-53
2023/06/20 11:13:05;;;;;;;10.70;9.65;;;28.20;96.30;;;;;;5002852;28;20496;-57
2023/06/20 11:15:33;;;;;;;13.00;10.43;;;28.40;96.50;;;;;;5003898;28;20034;-51
2023/06/20 11:18:04;;;;;;;10.35;9.35;;;28.50;96.30;;;;;;5002927;28;20049;-58
2023/06/20 11:20:36;;;;;;;11.38;8.77;;;28.50;96.20;;;;;;5003655;28;20056;-57
2023/06/20 11:23:04;;;;;;;10.82;9.55;;;28.50;95.10;;;;;;5015014;28;20412;-56
2023/06/20 11:25:34;;;;;;;10.07;9.05;;;28.40;95.70;;;;;;5003907;28;20060;-57
2023/06/20 11:28:05;;;;;;;10.40;9.35;;;28.60;95.90;;;;;;5002772;28;20046;-59
2023/06/20 11:30:33;;;;;;;11.95;9.23;;;28.80;95.40;;;;;;5004225;28;20136;-57
2023/06/20 11:33:04;;;;;;;9.80;8.85;;;28.90;94.80;;;;;;5003526;28;20088;-55
2023/06/20 11:35:51;;;;;;;9.77;8.60;;;28.70;95.40;;;;;;5003097;28;20530;-58
2023/06/20 11:38:24;;;;;;;11.27;8.23;;;28.80;95.20;;;;;;5002659;28;20049;-55
2023/06/20 11:41:04;;;;;;;9.85;8.85;;;28.90;95.20;;;;;;5002120;28;20081;-57
2023/06/20 11:43:41;;;;;;;10.20;9.20;;;29.00;95.30;;;;;;5002312;28;20389;-57
2023/06/20 11:46:07;;;;;;;10.65;8.35;;;29.10;95.10;;;;;;5003011;28;20515;-58
2023/06/20 11:48:33;;;;;;;9.77;8.10;;;29.20;94.40;;;;;;5002596;28;20100;-53
2023/06/20 11:51:00;;;;;;;10.18;8.90;;;29.20;94.80;;;;;;5010537;28;20473;-59
2023/06/20 11:53:29;;;;;;;9.80;8.80;;;29.10;94.90;;;;;;5013162;28;20681;-60
2023/06/20 11:56:09;;;;;;;9.75;8.40;;;29.10;95.00;;;;;;5015325;28;20034;-57
2023/06/20 11:58:45;;;;;;;8.75;7.95;;;29.10;94.30;;;;;;5021726;28;20033;-55
2023/06/20 12:01:16;;;;;;;13.32;9.60;;;28.90;94.30;;;;;;5012152;28;20503;-50
2023/06/20 12:03:43;;;;;;;12.88;10.15;;;28.80;94.80;;;;;;5012308;28;20641;-54
2023/06/20 12:06:28;;;;;;;10.63;9.55;;;28.80;95.00;;;;;;5005179;28;20038;-59
2023/06/20 12:09:16;;;;;;;10.65;9.48;;;28.90;95.20;;;;;;5003552;28;20034;-54
2023/06/20 12:11:52;;;;;;;9.57;8.65;;;29.20;94.80;;;;;;5006839;28;20069;-58
2023/06/20 12:14:18;;;;;;;11.05;9.95;;;29.20;94.40;;;;;;5019232;28;20041;-58
2023/06/20 12:16:44;;;;;;;10.57;8.93;;;29.10;94.00;;;;;;5007187;28;20042;-56
2023/06/20 12:19:10;;;;;;;11.70;9.40;;;28.90;94.70;;;;;;5007085;28;20564;-55
2023/06/20 12:21:38;;;;;;;11.18;8.38;;;28.80;94.90;;;;;;5006077;28;20552;-56
2023/06/20 12:24:05;;;;;;;8.68;7.65;;;28.70;94.40;;;;;;5006955;28;20050;-58
2023/06/20 12:26:31;;;;;;;8.30;7.50;;;28.70;94.40;;;;;;5019453;28;20045;-56
2023/06/20 12:28:56;;;;;;;11.80;8.60;;;28.80;94.20;;;;;;5026337;28;20045;-53
2023/06/20 12:31:22;;;;;;;9.95;7.97;;;28.90;93.60;;;;;;5026043;28;20045;-59
2023/06/20 12:33:48;;;;;;;8.55;7.65;;;28.90;94.10;;;;;;5025472;28;20080;-58
2023/06/20 12:36:15;;;;;;;11.23;9.43;;;29.10;94.00;;;;;;5041745;28;20048;-53